Aviation Digital Data Service (ADDS)

Output produced by METARs form (0931 UTC 19 November 2018)
found at http://www.aviationweather.gov/metar/data/
 
KMSP 190853Z 05003KT 10SM BKN070 OVC085 M03/M07 A2998 RMK AO2 SLP164 T10331072 53002
KMSP 190841Z 1909/2012 VRB03KT P6SM VCSH OVC090 
     FM191200 35006KT P6SM SCT020 OVC070 
     FM191700 35010G16KT P6SM OVC020 
     FM192100 35010KT P6SM BKN035 
     FM200000 34009KT P6SM FEW030
       
KRNH 190915Z AUTO 00000KT 10SM BKN037 BKN050 OVC065 M05/M08 A2999 RMK AO2 T10481085
KRNH 190855Z AUTO 00000KT 10SM SCT060 SCT075 OVC100 M05/M09 A2998 RMK AO2 T10501086
KRNH 190835Z AUTO 00000KT 10SM OVC100 M05/M09 A2998 RMK AO2 T10481087
KRNH 190852Z 1909/2006 VRB03KT 4SM -SHSN OVC030 
     TEMPO 1909/1912 1 1/2SM -SN BKN015 
     FM191400 36007KT P6SM BKN020 
     FM192100 35009KT P6SM BKN035 
     FM200100 35005KT P6SM SCT040